Commanda, Canada
Current Conditions -  °F | °C
As of 10:00 PM on Wednesday 26 Nov 2014 (Local Time) from CYYB Reporting Station
Overcast Overcast  
Wind Chill:   Ceiling: 1100
Heat Index: 18°   Visibility: 15mi
Dew Point: 16°   Wind: 8mph
Humidity: 93%   Direction: 70°ENE
Pressure: 30.1"   Gusts: NA
Location:  45.95°N, 79.6°W
Report Text: CYYB 270300Z 07007KT 15SM OVC011 M08/M09 A3010 RMK SC8 LAST STFD OBS/NEXT 271200 UTC SLP217
Loading
Personal Weather Stations






























Interactive Weather Map New forecast layout! Learn more

10-Day Weather Forecast

Advertisements
Track Severe Weather on mobile